Aérodrome de Figeac - Livernon

LFCF · Lot, Occitanie, Francja

Historia METAR LFCF · Aérodrome de Figeac - Livernon

Poniżej widzisz METAR-y z ostatnich kilku dni. Wybierz rok, aby przeglądać starsze METAR-y, począwszy od roku 2007.

2 marca 2024

Czas Kod Pogoda Temp. Widoczność Sufit Wiatr METAR/SPECI
15:00
V
13 °C 10 km+ - 170° 170° 7 kt METAR LFSL 021400Z AUTO 17007KT 130V190 CAVOK 13/06 Q0996 TEMPO 20015G30KT 4000 SHRA BKN005 BKN040TCU
14:30
V
13 °C 10 km+ - 160° 160° 6 kt METAR LFSL 021330Z AUTO 16006KT 120V190 CAVOK 13/06 Q0996 TEMPO 20015G30KT 4000 SHRA BKN005 BKN040TCU
14:00
V
13 °C 10 km+ - 130° 130° 8 kt METAR LFSL 021300Z AUTO 13008KT 110V190 CAVOK 13/07 Q0996 TEMPO 20015G30KT 4000 SHRA BKN005 BKN040TCU
13:30
V
12 °C 10 km+ - 130° 130° 10 kt METAR LFSL 021230Z AUTO 13010KT 100V160 CAVOK 12/08 Q0997 TEMPO 20015G30KT 4000 SHRA BKN005 BKN040TCU
13:00
V
10 °C 10 km+ - 120° 120° 10 kt METAR LFSL 021200Z AUTO 12010KT CAVOK 10/08 Q0997 TEMPO 4000 SHRA BKN005 BKN040TCU
12:30
V
10 °C 10 km+ 4.400 ft 150° 150° 7 kt METAR LFSL 021130Z AUTO 15007KT 120V180 9999 -RA FEW032 BKN044 OVC054 10/08 Q0999 TEMPO BKN050TCU
12:00
V
9 °C 10 km+ 4.500 ft 140° 140° 7 kt METAR LFSL 021100Z AUTO 14007KT 100V190 9999 -RA FEW032 OVC045 09/08 Q0999 TEMPO 4000 -SHRA BKN050TCU
11:30
V
9 °C 10 km+ 4.400 ft 170° 170° 6 kt METAR LFSL 021030Z AUTO 17006KT 130V220 9999 -RA FEW022 OVC044 09/07 Q0999 TEMPO 4000 -SHRA BKN050TCU
11:00
V
8 °C 10 km+ 4.900 ft 140° 140° 6 kt METAR LFSL 021000Z AUTO 14006KT 100V200 9999 -RA FEW008 BKN049 OVC058 08/07 Q0999 TEMPO 4000 -SHRA BKN005 BKN040TCU
10:30
I
8 °C 10 km+ 600 ft 140° 140° 8 kt METAR LFSL 020930Z AUTO 14008KT 120V180 9999 BKN006 OVC060 08/07 Q1000 TEMPO 4000 -SHRA BKN005 BKN040TCU
10:00
I
8 °C 10 km+ 500 ft 140° 140° 7 kt METAR LFSL 020900Z AUTO 14007KT 9999 -RA OVC005 08/07 Q1000 TEMPO 4000 -SHRA BKN010 BKN040TCU
09:30
I
7 °C 10 km+ 500 ft 140° 140° 8 kt METAR LFSL 020830Z AUTO 14008KT 110V190 9999 -RA OVC005 07/07 Q1000 TEMPO 4000 -SHRA BKN010 BKN040TCU
09:00
I
7 °C 10 km+ 500 ft 140° 140° 8 kt METAR LFSL 020800Z AUTO 14008KT 100V170 9999 -RA BKN005/// BKN016/// BKN046/// //////TCU 07/07 Q1001 TEMPO 4000 -RA BKN005
08:30
M
7 °C 10 km+ 1.300 ft 140° 140° 8 kt METAR LFSL 020730Z AUTO 14008KT 110V180 9999 -RA SCT005/// BKN013/// BKN032/// //////TCU 07/06 Q1001 TEMPO 4000 -RA BKN005
08:00
I
7 °C 9 km 600 ft 150° 150° 8 kt METAR LFSL 020700Z AUTO 15008KT 110V200 9000 -RA BKN006/// BKN010/// OVC044/// //////TCU 07/06 Q1002 TEMPO 4000 -RA BKN005
07:30
I
7 °C 6 km 500 ft 170° 170° 7 kt METAR LFSL 020630Z AUTO 17007KT 130V190 6000 RA BKN005/// OVC010/// //////TCU 07/06 Q1002 TEMPO 4000 -RA BKN005
07:00
I
7 °C 10 km+ 600 ft 160° 160° 8 kt METAR LFSL 020600Z AUTO 16008KT 110V190 9999 RA BKN006/// BKN012/// OVC023/// //////TCU 07/06 Q1002 TEMPO 4000 -RA BKN005
06:30
I
7 °C 10 km+ 800 ft 160° 160° 7 kt METAR LFSL 020530Z AUTO 16007KT 130V220 9999 -RA BKN008/// BKN017/// OVC060/// //////TCU 07/06 Q1002 TEMPO 4000 -RA BKN005
06:00
I
7 °C 10 km+ 900 ft 160° 160° 7 kt METAR LFSL 020500Z AUTO 16007KT 130V190 9999 -RA BKN009/// BKN014/// OVC033/// //////TCU 07/06 Q1003 TEMPO 4000 -RA BKN005
05:30
M
7 °C 10 km+ 1.100 ft 150° 150° 6 kt METAR LFSL 020430Z AUTO 15006KT 120V180 9999 BKN011 BKN040 BKN066 07/06 Q1003 TEMPO 4000 -RA BKN005
05:00
V
7 °C 10 km+ - 150° 150° 5 kt METAR LFSL 020400Z AUTO 15005KT 120V190 CAVOK 07/05 Q1003 TEMPO 4000 -RA BKN005
04:30
V
7 °C 10 km+ - 160° 160° 8 kt METAR LFSL 020330Z AUTO 16008KT 130V200 9999 //////TCU 07/05 Q1003 TEMPO 4000 -RA BKN005
04:00
V
7 °C 10 km+ - 160° 160° 7 kt METAR LFSL 020300Z AUTO 16007KT 130V190 CAVOK 07/05 Q1003 TEMPO 4000 -RA BKN005
03:30
V
7 °C 10 km+ - 170° 170° 7 kt METAR LFSL 020230Z AUTO 17007KT 130V190 CAVOK 07/06 Q1004 TEMPO 4000 -RA BKN005
03:00
V
7 °C 10 km+ - 160° 160° 6 kt METAR LFSL 020200Z AUTO 16006KT 130V210 CAVOK 07/06 Q1005
02:30
V
8 °C 10 km+ - 180° 180° 6 kt METAR LFSL 020130Z AUTO 18006KT 140V200 9999 -RA NSC 08/06 Q1005
02:00
V
8 °C 10 km+ 4.900 ft 170° 170° 7 kt METAR LFSL 020100Z AUTO 17007KT 140V200 9999 -RA BKN049 BKN058 OVC068 08/06 Q1005
01:30
V
8 °C 10 km+ 4.300 ft 180° 180° 4 kt METAR LFSL 020030Z AUTO 18004KT 150V230 9999 -RA FEW008 SCT017 OVC043 08/06 Q1005
01:00
M
8 °C 10 km+ 1.400 ft 220° 220° 5 kt METAR LFSL 020000Z AUTO 22005KT 190V260 9999 -DZ BKN014 BKN020 OVC032 08/06 Q1006
00:30
M
9 °C 10 km+ 2.300 ft 230° 230° 7 kt METAR LFSL 012330Z AUTO 23007KT 190V300 9999 -RA BKN023 BKN031 OVC039 09/05 Q1005
00:00
M
10 °C 10 km+ 2.700 ft 220° 220° 8 kt METAR LFSL 012300Z AUTO 22008KT 160V260 9999 BKN027 BKN034 OVC044 10/05 Q1005

1 marca 2024

Czas Kod Pogoda Temp. Widoczność Sufit Wiatr METAR/SPECI
23:30
V
9 °C 10 km+ 3.100 ft 200° 200° 6 kt METAR LFSL 012230Z AUTO 20006KT 160V260 9999 OVC031 09/05 Q1005
23:00
V
9 °C 10 km+ 3.600 ft 170° 170° 4 kt METAR LFSL 012200Z AUTO 17004KT 130V210 9999 -RADZ OVC036 09/06 Q1005
22:30
V
10 °C 10 km+ 3.900 ft 220° 220° 7 kt METAR LFSL 012130Z AUTO 22007KT 170V260 9999 -RA OVC039 10/05 Q1005
22:00
V
9 °C 10 km+ 3.200 ft 200° 200° 6 kt METAR LFSL 012100Z AUTO 20006KT 150V240 9999 FEW024 BKN032 OVC039 09/06 Q1006 TEMPO 22015G25KT 4000 SHRA BKN010 BKN020TCU
21:30
M
9 °C 10 km+ 2.400 ft 180° 180° 6 kt METAR LFSL 012030Z AUTO 18006KT 150V230 9999 -RA OVC024 09/06 Q1006 TEMPO 22015G25KT 4000 SHRA BKN010 BKN020TCU
21:00
M
9 °C 10 km+ 2.600 ft 170° 170° 6 kt METAR LFSL 012000Z AUTO 17006KT 150V220 9999 FEW019 OVC026 09/06 Q1006 TEMPO 22015G25KT 4000 SHRA BKN010 BKN020TCU
20:30
M
9 °C 10 km+ 2.100 ft 190° 190° 6 kt METAR LFSL 011930Z AUTO 19006KT 150V240 9999 -DZ BKN021 OVC028 09/06 Q1006 TEMPO 22015G25KT 4000 SHRA BKN010 BKN020TCU
20:00
M
9 °C 10 km+ 2.400 ft 180° 180° 6 kt METAR LFSL 011900Z AUTO 18006KT 150V210 9999 -RADZ BKN024 OVC031 09/06 Q1006 TEMPO 22015G25KT 4000 SHRA BKN010 BKN020TCU
19:30
M
9 °C 10 km+ 2.100 ft 190° 190° 7 kt METAR LFSL 011830Z AUTO 19007KT 160V240 9999 -RA BKN021 BKN028 OVC033 09/06 Q1006 TEMPO 22015G25KT 4000 SHRA BKN010 BKN020TCU
19:00
V
9 °C 10 km+ 3.400 ft 180° 180° 5 kt METAR LFSL 011800Z AUTO 18005KT 150V230 9999 FEW020 BKN034 BKN048 09/06 Q1006 TEMPO 22015G25KT 4000 SHRA BKN010 BKN020TCU
18:30
M
9 °C 10 km+ 2.000 ft 190° 190° 5 kt METAR LFSL 011730Z AUTO 19005KT 140V230 9999 BKN020 BKN027 OVC033 09/06 Q1006 TEMPO 22015G25KT 4000 SHRA BKN010 BKN020TCU
18:00
M
9 °C 10 km+ 2.400 ft 160° 160° 7 kt METAR LFSL 011700Z AUTO 16007KT 9999 OVC024 09/06 Q1006 TEMPO 4000 SHRA BKN010 BKN018TCU
17:30
M
9 °C 10 km+ 2.600 ft 160° 160° 4 kt METAR LFSL 011630Z AUTO 16004KT 130V190 9999 OVC026 09/06 Q1006 TEMPO 4000 SHRA BKN010 BKN018TCU
17:00
M
9 °C 10 km+ 2.800 ft 170° 170° 8 kt METAR LFSL 011600Z AUTO 17008KT 140V200 9999 -RA OVC028 09/06 Q1007 TEMPO 4000 SHRA BKN010 BKN018TCU
16:30
M
9 °C 10 km+ 2.900 ft 170° 170° 8 kt METAR LFSL 011530Z AUTO 17008KT 140V200 9999 OVC029 09/05 Q1007 TEMPO 4000 SHRA BKN010 BKN018TCU
16:00
M
9 °C 10 km+ 2.700 ft 170° 170° 7 kt METAR LFSL 011500Z AUTO 17007KT 130V210 9999 -DZ FEW019 OVC027 09/05 Q1007 TEMPO 4000 SHRA BKN010 BKN018TCU
15:30
M
9 °C 10 km+ 2.600 ft 180° 180° 8 kt METAR LFSL 011430Z AUTO 18008KT 9999 SCT019 OVC026 09/06 Q1008 TEMPO 22015G25KT 3000 SHRA BKN007 BKN015TCU
15:00
M
9 °C 10 km+ 1.400 ft 180° 180° 7 kt METAR LFSL 011400Z AUTO 18007KT 140V220 9999 BKN014 BKN020 OVC025 09/06 Q1008 TEMPO 22015G25KT 3000 SHRA BKN007 BKN015TCU
14:30
M
8 °C 10 km+ 1.400 ft 180° 180° 8 kt METAR LFSL 011330Z AUTO 18008KT 150V220 9999 SCT009 BKN014 OVC019 08/06 Q1009 TEMPO 22015G25KT 3000 SHRA BKN007 BKN015TCU
14:00
I
7 °C 10 km+ 800 ft 180° 180° 9 kt METAR LFSL 011300Z AUTO 18009KT 150V210 9999 -DZ OVC008 07/06 Q1009 TEMPO 22015G25KT 3000 SHRA BKN007 BKN015TCU
13:30
I
8 °C 10 km+ 900 ft 190° 190° 8 kt METAR LFSL 011230Z AUTO 19008KT 160V220 9999 BKN009 OVC014 08/06 Q1010 TEMPO 22015G25KT 3000 SHRA BKN007 BKN015TCU
13:00
I
7 °C 10 km+ 800 ft 180° 180° 8 kt METAR LFSL 011200Z AUTO 18008KT 150V220 9999 -RADZ OVC008 07/06 Q1010 TEMPO 22015G25KT 3000 SHRA BKN007 BKN015TCU
12:30
I
7 °C 10 km+ 700 ft 180° 180° 9 kt METAR LFSL 011130Z AUTO 18009KT 150V210 9999 -DZ OVC007 07/05 Q1011 TEMPO 22015G25KT 4500 -SHRA BKN010 BKN015TCU
12:00
I
7 °C 10 km+ 800 ft 180° 180° 8 kt METAR LFSL 011100Z AUTO 18008KT 150V220 9999 OVC008/// //////TCU 07/06 Q1011 TEMPO 22015G25KT 4500 -SHRA BKN010 BKN015TCU
11:30
M
7 °C 10 km+ 1.100 ft 180° 180° 8 kt METAR LFSL 011030Z AUTO 18008KT 140V200 9999 -RA BKN011 OVC016 07/05 Q1011 TEMPO 22015G25KT 4500 -SHRA BKN010 BKN015TCU
11:00
M
7 °C 10 km+ 1.000 ft 180° 180° 8 kt METAR LFSL 011000Z AUTO 18008KT 150V210 9999 BKN010 BKN015 OVC049 07/05 Q1012 TEMPO 22015G25KT 4500 -SHRA BKN010 BKN015TCU
10:30
M
7 °C 10 km+ 1.000 ft 180° 180° 7 kt METAR LFSL 010930Z AUTO 18007KT 140V230 9999 SCT006 BKN010 BKN029 07/05 Q1012 TEMPO 22015G25KT 4500 -SHRA BKN010 BKN015TCU
10:00
I
6 °C 10 km+ 500 ft 170° 170° 6 kt METAR LFSL 010900Z AUTO 17006KT 130V200 9999 BKN005 BKN037 OVC046 06/05 Q1012 BECMG BKN015
09:30
I
6 °C 10 km+ 500 ft 180° 180° 8 kt METAR LFSL 010830Z AUTO 18008KT 140V220 9999 OVC005 06/04 Q1012 TEMPO 4500 -SHRA BKN003 BKN015TCU
09:00
L
5 °C 10 km+ 400 ft 190° 190° 6 kt METAR LFSL 010800Z AUTO 19006KT 170V230 9999 OVC004 05/04 Q1013 TEMPO 4500 -SHRA BKN003 BKN015TCU
08:30
L
5 °C 10 km+ 300 ft 190° 190° 5 kt METAR LFSL 010730Z AUTO 19005KT 160V220 9999 BKN003 BKN035 OVC043 05/04 Q1013 TEMPO 4500 -SHRA BKN003 BKN015TCU
08:00
V
4 °C 10 km+ - 180° 180° 3 kt METAR LFSL 010700Z AUTO 18003KT 9999 FEW027 SCT043 04/03 Q1013 TEMPO 0650 FG VV///
07:30
V
4 °C 10 km+ - Var Var 3 kt METAR LFSL 010630Z AUTO VRB03KT 9999 FEW004 04/03 Q1013 TEMPO 0650 FG VV///
07:00
L
5 °C 10 km+ 400 ft 220° 220° 3 kt METAR LFSL 010600Z AUTO 22003KT 180V280 9999 BKN004 05/04 Q1013 TEMPO 0650 FG VV///
06:30
L
5 °C 10 km+ 400 ft 240° 240° 4 kt METAR LFSL 010530Z AUTO 24004KT 200V280 9999 OVC004 05/04 Q1013 TEMPO 0650 FG VV///
06:00
V
5 °C 10 km+ - Var Var 3 kt METAR LFSL 010500Z AUTO VRB03KT 9999 SCT006 05/04 Q1013 TEMPO 0650 FG VV///
05:30
I
6 °C 10 km+ 700 ft 260° 260° 4 kt METAR LFSL 010430Z AUTO 26004KT 220V300 9999 BKN007/// //////TCU 06/04 Q1013 TEMPO 0650 FG VV///
05:00
I
6 °C 10 km+ 900 ft 270° 270° 4 kt METAR LFSL 010400Z AUTO 27004KT 220V310 9999 OVC009/// //////TCU 06/05 Q1013 TEMPO 2500 BR BECMG BKN012
04:30
M
6 °C 10 km+ 1.900 ft 270° 270° 4 kt METAR LFSL 010330Z AUTO 27004KT 220V320 9999 FEW009 BKN019 OVC040 06/05 Q1013 TEMPO 2500 BR BECMG BKN012
04:00
I
6 °C 10 km+ 900 ft 280° 280° 4 kt METAR LFSL 010300Z AUTO 28004KT 220V320 9999 FEW005 BKN009 BKN013 06/05 Q1013 TEMPO 4500 -SHRA BKN005 BKN010TCU
03:30
I
6 °C 10 km+ 600 ft 280° 280° 6 kt METAR LFSL 010230Z AUTO 28006KT 9999 OVC006 06/05 Q1013
03:00
I
7 °C 10 km+ 700 ft 290° 290° 7 kt METAR LFSL 010200Z AUTO 29007KT 9999 OVC007 07/05 Q1013
02:30
I
7 °C 10 km+ 700 ft 300° 300° 7 kt METAR LFSL 010130Z AUTO 30007KT 260V320 9999 BKN007 BKN011 OVC022 07/05 Q1013
02:00
I
7 °C 10 km+ 800 ft 290° 290° 10 kt METAR LFSL 010100Z AUTO 29010KT 9999 OVC008 07/05 Q1012
01:30
M
7 °C 10 km+ 1.100 ft 290° 290° 10 kt METAR LFSL 010030Z AUTO 29010KT 260V320 9999 BKN011 OVC023 07/06 Q1012
01:00
I
7 °C 10 km+ 900 ft 310° 310° 10 kt METAR LFSL 010000Z AUTO 31010KT 9999 BKN009 BKN014 BKN020 07/06 Q1012
00:30
I
8 °C 10 km+ 700 ft 280° 280° 6 kt METAR LFSL 292330Z AUTO 28006KT 250V320 9999 -DZ BKN007/// OVC014/// //////TCU 08/07 Q1011
00:00
I
8 °C 6 km 500 ft 270° 270° 4 kt METAR LFSL 292300Z AUTO 27004KT 230V320 6000 RA BKN005 BKN010 OVC017 08/07 Q1011

29 lutego 2024

Czas Kod Pogoda Temp. Widoczność Sufit Wiatr METAR/SPECI
23:30
I
8 °C 7 km 700 ft 260° 260° 3 kt METAR LFSL 292230Z AUTO 26003KT 210V340 7000 -RA BKN007/// BKN011/// OVC029/// //////TCU 08/07 Q1011
23:00
I
8 °C 10 km+ 700 ft 280° 280° 3 kt METAR LFSL 292200Z AUTO 28003KT 240V310 9999 -RA BKN007/// OVC014/// //////TCU 08/07 Q1011
22:30
I
8 °C 10 km+ 900 ft 260° 260° 3 kt METAR LFSL 292130Z AUTO 26003KT 210V300 9999 BKN009 BKN015 OVC021 08/07 Q1011
22:00
M
8 °C 10 km+ 1.500 ft 300° 300° 6 kt METAR LFSL 292100Z AUTO 30006KT 9999 OVC015 08/06 Q1011 TEMPO 29015G25KT 4000 SHRA BKN005 BKN015TCU
21:30
M
8 °C 10 km+ 1.600 ft 310° 310° 10 kt METAR LFSL 292030Z AUTO 31010KT 9999 BKN016 BKN022 BKN032 08/06 Q1011 TEMPO 29015G25KT 4000 SHRA BKN005 BKN015TCU
21:00
M
9 °C 10 km+ 1.500 ft 290° 290° 9 kt METAR LFSL 292000Z AUTO 29009KT 250V310 9999 SCT009/// BKN015/// OVC021/// //////CB 09/07 Q1010 TEMPO 29015G25KT 4000 SHRA BKN007 BKN020TCU
20:30
I
8 °C 10 km+ 500 ft 230° 230° 4 kt METAR LFSL 291930Z AUTO 23004KT 170V270 9999 -DZ BKN005 OVC009 08/08 Q1010 TEMPO 29015G25KT 4000 SHRA BKN007 BKN020TCU
20:00
I
8 °C 3 km 800 ft 180° 180° 4 kt METAR LFSL 291900Z AUTO 18004KT 9999 3000 SCT003/// BKN008/// OVC017/// //////TCU 08/07 Q1010 TEMPO 29015G25KT 4000 SHRA
19:30
L
8 °C 6 km 300 ft 170° 170° 5 kt METAR LFSL 291830Z AUTO 17005KT 140V210 6000 -RA BKN003/// BKN018/// BKN026/// //////TCU 08/07 Q1010 TEMPO 29015G25KT 4000 SHRA BKN007 BKN020TCU
19:00
V
8 °C 10 km+ 3.700 ft 160° 160° 5 kt METAR LFSL 291800Z AUTO 16005KT 120V190 9999 -RA SCT006/// SCT030/// BKN037/// //////TCU 08/07 Q1010 TEMPO 29015G25KT 4000 SHRA BKN007 BKN020TCU
18:30
M
8 °C 9 km 2.600 ft 170° 170° 5 kt METAR LFSL 291730Z AUTO 17005KT 9000 -RA FEW020/// BKN026/// BKN032/// //////TCU 08/07 Q1010 TEMPO 29015G25KT 4000 SHRA BKN007 BKN020TCU
18:00
M
9 °C 5 km 2.600 ft 230° 230° 4 kt METAR LFSL 291700Z AUTO 23004KT 180V280 5000 -DZ BR FEW009/// SCT015/// OVC026/// //////TCU 09/07 Q1010 TEMPO 29015G25KT SHRA BKN008 BKN020TCU
17:30
M
10 °C 10 km+ 2.800 ft 230° 230° 4 kt METAR LFSL 291630Z AUTO 23004KT 190V270 9999 FEW017/// OVC028/// //////TCU 10/06 Q1010 TEMPO 29015G25KT 4000 SHRA BKN008 BKN020TCU
17:00
M
10 °C 10 km+ 2.600 ft 230° 230° 6 kt METAR LFSL 291600Z AUTO 23006KT 190V260 9999 -RA OVC026 10/06 Q1010 TEMPO BKN013TCU
16:30
M
11 °C 10 km+ 2.600 ft 200° 200° 4 kt METAR LFSL 291530Z AUTO 20004KT 150V250 9999 BKN026 OVC032 11/05 Q1010 TEMPO BKN013TCU
16:00
V
12 °C 10 km+ 3.200 ft 210° 210° 5 kt METAR LFSL 291500Z AUTO 21005KT 160V250 9999 OVC032 12/05 Q1011 TEMPO BKN013TCU
15:30
V
12 °C 10 km+ 3.200 ft 200° 200° 5 kt METAR LFSL 291430Z AUTO 20005KT 150V240 9999 SCT027 BKN032 OVC038 12/05 Q1011 TEMPO BKN013TCU
15:00
V
12 °C 10 km+ 4.100 ft 180° 180° 7 kt METAR LFSL 291400Z AUTO 18007KT 140V210 9999 SCT025 OVC041 12/05 Q1011 TEMPO 4000 RA BKN005
14:30
V
12 °C 10 km+ 4.200 ft 190° 190° 6 kt METAR LFSL 291330Z AUTO 19006KT 150V230 9999 FEW020 BKN042 OVC170 12/05 Q1012 TEMPO 4000 RA BKN005
14:00
V
11 °C 10 km+ 4.000 ft 200° 200° 6 kt METAR LFSL 291300Z AUTO 20006KT 160V250 9999 FEW022 OVC040 11/06 Q1013 NOSIG
13:30
M
11 °C 10 km+ 1.700 ft 240° 240° 5 kt METAR LFSL 291230Z AUTO 24005KT 150V300 9999 BKN017 BKN022 OVC037 11/06 Q1013 NOSIG
13:00
M
11 °C 10 km+ 1.600 ft Var Var 5 kt METAR LFSL 291200Z AUTO VRB05KT 9999 BKN016 OVC037 11/06 Q1014 NOSIG
12:30
V
10 °C 10 km+ 3.800 ft 160° 160° 4 kt METAR LFSL 291130Z AUTO 16004KT 090V210 9999 SCT014 OVC038 10/06 Q1014 TEMPO BKN009
12:00
V
9 °C 10 km+ 3.700 ft 150° 150° 5 kt METAR LFSL 291100Z AUTO 15005KT 100V220 9999 FEW009 OVC037 09/05 Q1015 TEMPO BKN009
11:30
I
8 °C 10 km+ 900 ft 150° 150° 6 kt METAR LFSL 291030Z AUTO 15006KT 120V190 9999 OVC009 08/04 Q1015 NOSIG
11:00
I
7 °C 10 km+ 700 ft 140° 140° 7 kt METAR LFSL 291000Z AUTO 14007KT 100V170 9999 OVC007 07/03 Q1016 NOSIG
10:30
I
6 °C 10 km+ 700 ft 140° 140° 6 kt METAR LFSL 290930Z AUTO 14006KT 110V190 9999 OVC007 06/02 Q1016 NOSIG
10:00
I
5 °C 10 km+ 800 ft 130° 130° 5 kt METAR LFSL 290900Z AUTO 13005KT 100V160 9999 OVC008 05/02 Q1016 NOSIG
09:30
I
4 °C 10 km+ 900 ft 120° 120° 6 kt METAR LFSL 290830Z AUTO 12006KT 9999 OVC009 04/01 Q1017 NOSIG
09:00
M
3 °C 10 km+ 1.000 ft 130° 130° 5 kt METAR LFSL 290800Z AUTO 13005KT 9999 OVC010 03/00 Q1017 NOSIG
08:30
M
3 °C 10 km+ 1.200 ft 120° 120° 4 kt METAR LFSL 290730Z AUTO 12004KT 9999 OVC012 03/00 Q1017 TEMPO BKN005
08:00
M
3 °C 10 km+ 1.100 ft 130° 130° 4 kt METAR LFSL 290700Z AUTO 13004KT 100V180 9999 OVC011 03/M00 Q1017 TEMPO BKN005
07:30
M
2 °C 10 km+ 1.100 ft 130° 130° 4 kt METAR LFSL 290630Z AUTO 13004KT 110V190 9999 OVC011 02/00 Q1018 TEMPO BKN005
07:00
M
2 °C 10 km+ 1.100 ft 110° 110° 5 kt METAR LFSL 290600Z AUTO 11005KT 9999 OVC011 02/00 Q1018 TEMPO BKN005